createdAt,value
2016-12-20T00:00:21.346Z,-2.4
2016-12-20T00:01:21.328Z,-2.36
2016-12-20T00:02:21.308Z,-2.36
2016-12-20T00:03:21.290Z,-2.32
2016-12-20T00:04:21.269Z,-2.46
2016-12-20T00:05:21.251Z,-2.37
2016-12-20T00:06:21.236Z,-2.36
2016-12-20T00:07:21.219Z,-2.4
2016-12-20T00:08:21.198Z,-2.42
2016-12-20T00:09:21.178Z,-2.4
2016-12-20T00:10:21.160Z,-2.34
2016-12-20T00:11:21.141Z,-2.4
2016-12-20T00:12:21.121Z,-2.36
2016-12-20T00:13:21.108Z,-2.34
2016-12-20T00:14:21.084Z,-2.2
2016-12-20T00:15:21.067Z,-2.27
2016-12-20T00:16:21.046Z,-2.28
2016-12-20T00:17:21.029Z,-2.36
2016-12-20T00:18:21.014Z,-2.4
2016-12-20T00:19:20.997Z,-2.42
2016-12-20T00:20:20.975Z,-2.36
2016-12-20T00:21:20.958Z,-2.43
2016-12-20T00:22:20.937Z,-2.36
2016-12-20T00:23:20.917Z,-2.37
2016-12-20T00:24:20.897Z,-2.37
2016-12-20T00:25:20.878Z,-2.39
2016-12-20T00:26:20.888Z,-2.49
2016-12-20T00:27:20.841Z,-2.53
2016-12-20T00:28:20.823Z,-2.43
2016-12-20T00:29:20.813Z,-2.46
2016-12-20T00:30:20.786Z,-2.47
2016-12-20T00:31:20.769Z,-2.47
2016-12-20T00:32:20.756Z,-2.54
2016-12-20T00:33:20.728Z,-2.47
2016-12-20T00:34:20.712Z,-2.47
2016-12-20T00:35:20.691Z,-2.47
2016-12-20T00:36:20.677Z,-2.49
2016-12-20T00:37:20.656Z,-2.5
2016-12-20T00:38:20.637Z,-2.49
2016-12-20T00:39:20.648Z,-2.5
2016-12-20T00:40:20.603Z,-2.53
2016-12-20T00:41:20.593Z,-2.58
2016-12-20T00:42:20.564Z,-2.55
2016-12-20T00:43:20.552Z,-2.58
2016-12-20T00:44:20.525Z,-2.67
2016-12-20T00:45:20.508Z,-2.75
2016-12-20T00:46:20.488Z,-2.79
2016-12-20T00:47:20.471Z,-2.81
2016-12-20T00:48:20.469Z,-2.9
2016-12-20T00:49:20.433Z,-2.93
2016-12-20T00:50:20.419Z,-3
2016-12-20T00:51:20.398Z,-2.86
2016-12-20T00:52:20.374Z,-2.93
2016-12-20T00:53:20.355Z,-3
2016-12-20T00:54:20.343Z,-2.99
2016-12-20T00:55:20.318Z,-3.09
2016-12-20T00:56:20.301Z,-3.06
2016-12-20T00:57:20.285Z,-3.15
2016-12-20T00:58:20.261Z,-3.12
2016-12-20T00:59:20.245Z,-3.18
2016-12-20T01:00:20.231Z,-3.22
2016-12-20T01:01:20.211Z,-3.3
2016-12-20T01:02:20.188Z,-3.32
2016-12-20T01:03:20.176Z,-3.32
2016-12-20T01:04:20.149Z,-3.38
2016-12-20T01:05:20.134Z,-3.39
2016-12-20T01:06:20.114Z,-3.42
2016-12-20T01:07:20.097Z,-3.43
2016-12-20T01:08:20.080Z,-3.51
2016-12-20T01:09:20.062Z,-3.57
2016-12-20T01:10:20.038Z,-3.61
2016-12-20T01:11:20.049Z,-3.6
2016-12-20T01:12:20.003Z,-3.75
2016-12-20T01:13:19.985Z,-3.72
2016-12-20T01:14:19.963Z,-3.72
2016-12-20T01:15:19.945Z,-3.77
2016-12-20T01:16:19.927Z,-3.82
2016-12-20T01:17:19.910Z,-3.83
2016-12-20T01:18:19.888Z,-3.86
2016-12-20T01:19:19.868Z,-3.86
2016-12-20T01:20:19.851Z,-3.91
2016-12-20T01:21:19.832Z,-3.87
2016-12-20T01:22:19.814Z,-3.94
2016-12-20T01:23:19.793Z,-3.91
2016-12-20T01:24:19.774Z,-3.93
2016-12-20T01:25:19.764Z,-3.97
2016-12-20T01:26:19.737Z,-4.04
2016-12-20T01:27:19.720Z,-4.01
2016-12-20T01:28:19.699Z,-4
2016-12-20T01:29:19.679Z,-4.01
2016-12-20T01:30:19.660Z,-3.96
2016-12-20T01:31:19.643Z,-4.05
2016-12-20T01:32:19.625Z,-4
2016-12-20T01:33:19.603Z,-3.96
2016-12-20T01:34:19.586Z,-4.05
2016-12-20T01:35:19.566Z,-3.97
2016-12-20T01:36:19.544Z,-4.05
2016-12-20T01:37:19.527Z,-4.11
2016-12-20T01:38:19.511Z,-4.16
2016-12-20T01:39:19.491Z,-4.14
2016-12-20T01:40:19.466Z,-4.14
2016-12-20T01:41:19.448Z,-4.12
2016-12-20T01:42:19.432Z,-4.14
2016-12-20T01:43:19.409Z,-4.12
2016-12-20T01:44:19.389Z,-4.16
2016-12-20T01:45:19.376Z,-4.19
2016-12-20T01:46:19.354Z,-4.12
2016-12-20T01:47:19.334Z,-4.22
2016-12-20T01:48:19.310Z,-4.27
2016-12-20T01:49:19.303Z,-4.25
2016-12-20T01:50:19.277Z,-4.22
2016-12-20T01:51:19.257Z,-4.22
2016-12-20T01:52:19.236Z,-4.29
2016-12-20T01:53:19.217Z,-4.26
2016-12-20T01:54:19.195Z,-4.3
2016-12-20T01:55:19.176Z,-4.27
2016-12-20T01:56:19.161Z,-4.36
2016-12-20T01:57:19.137Z,-4.29
2016-12-20T01:58:19.119Z,-4.27
2016-12-20T01:59:19.105Z,-4.29
2016-12-20T02:00:19.081Z,-4.26
2016-12-20T02:01:19.067Z,-4.18
2016-12-20T02:02:19.194Z,-4.29
2016-12-20T02:03:19.031Z,-4.25
2016-12-20T02:04:19.017Z,-4.26
2016-12-20T02:05:19.297Z,-4.25
2016-12-20T02:06:18.962Z,-4.27
2016-12-20T02:07:18.947Z,-4.29
2016-12-20T02:08:18.927Z,-4.25
2016-12-20T02:09:18.912Z,-4.3
2016-12-20T02:10:18.884Z,-4.29
2016-12-20T02:11:18.868Z,-4.23
2016-12-20T02:12:18.848Z,-4.32
2016-12-20T02:13:18.835Z,-4.32
2016-12-20T02:14:18.810Z,-4.29
2016-12-20T02:15:18.790Z,-4.23
2016-12-20T02:16:18.770Z,-4.27
2016-12-20T02:17:18.750Z,-4.26
2016-12-20T02:18:18.732Z,-4.23
2016-12-20T02:19:18.715Z,-4.3
2016-12-20T02:20:18.692Z,-4.27
2016-12-20T02:21:18.675Z,-4.25
2016-12-20T02:22:18.656Z,-4.23
2016-12-20T02:23:18.633Z,-4.27
2016-12-20T02:24:18.623Z,-4.27
2016-12-20T02:25:18.599Z,-4.29
2016-12-20T02:26:18.580Z,-4.3
2016-12-20T02:27:18.558Z,-4.27
2016-12-20T02:28:18.541Z,-4.19
2016-12-20T02:29:18.519Z,-4.29
2016-12-20T02:30:18.500Z,-4.36
2016-12-20T02:31:18.479Z,-4.26
2016-12-20T02:32:18.459Z,-4.27
2016-12-20T02:33:18.439Z,-4.29
2016-12-20T02:34:18.417Z,-4.34
2016-12-20T02:35:18.403Z,-4.34
2016-12-20T02:36:18.387Z,-4.45
2016-12-20T02:37:18.365Z,-4.47
2016-12-20T02:38:18.346Z,-4.47
2016-12-20T02:39:18.323Z,-4.43
2016-12-20T02:40:31.040Z,-4.48
2016-12-20T02:41:18.284Z,-4.47
2016-12-20T02:42:18.260Z,-4.5
2016-12-20T02:43:18.240Z,-4.48
2016-12-20T02:44:18.226Z,-4.53
2016-12-20T02:45:18.205Z,-4.53
2016-12-20T02:46:18.183Z,-4.53
2016-12-20T02:47:18.163Z,-4.48
2016-12-20T02:48:18.153Z,-4.59
2016-12-20T02:49:18.129Z,-4.53
2016-12-20T02:50:18.105Z,-4.54
2016-12-20T02:51:18.084Z,-4.53
2016-12-20T02:52:18.070Z,-4.63
2016-12-20T02:53:18.048Z,-4.55
2016-12-20T02:54:18.028Z,-4.55
2016-12-20T02:55:18.007Z,-4.53
2016-12-20T02:56:17.992Z,-4.59
2016-12-20T02:57:17.969Z,-4.51
2016-12-20T02:58:17.951Z,-4.65
2016-12-20T02:59:17.933Z,-4.62
2016-12-20T03:00:17.913Z,-4.61
2016-12-20T03:01:17.894Z,-4.65
2016-12-20T03:02:17.874Z,-4.63
2016-12-20T03:03:17.852Z,-4.65
2016-12-20T03:04:17.837Z,-4.66
2016-12-20T03:05:17.814Z,-4.54
2016-12-20T03:06:17.797Z,-4.53
2016-12-20T03:07:17.775Z,-4.62
2016-12-20T03:08:17.753Z,-4.61
2016-12-20T03:09:17.734Z,-4.61
2016-12-20T03:10:17.715Z,-4.65
2016-12-20T03:11:17.703Z,-4.66
2016-12-20T03:12:17.686Z,-4.62
2016-12-20T03:13:17.657Z,-4.5
2016-12-20T03:14:17.638Z,-4.48
2016-12-20T03:15:17.619Z,-4.47
2016-12-20T03:16:17.596Z,-4.44
2016-12-20T03:17:17.574Z,-4.44
2016-12-20T03:18:17.558Z,-4.47
2016-12-20T03:19:17.536Z,-4.44
2016-12-20T03:20:17.551Z,-4.43
2016-12-20T03:21:17.497Z,-4.43
2016-12-20T03:22:17.482Z,-4.41
2016-12-20T03:23:17.458Z,-4.39
2016-12-20T03:24:17.439Z,-4.44
2016-12-20T03:25:17.421Z,-4.51
2016-12-20T03:26:17.403Z,-4.48
2016-12-20T03:27:17.382Z,-4.44
2016-12-20T03:28:17.364Z,-4.44
2016-12-20T03:29:17.345Z,-4.43
2016-12-20T03:30:17.321Z,-4.45
2016-12-20T03:31:17.307Z,-4.44
2016-12-20T03:32:17.281Z,-4.45
2016-12-20T03:33:17.262Z,-4.47
2016-12-20T03:34:17.241Z,-4.47
2016-12-20T03:35:17.224Z,-4.47
2016-12-20T03:36:17.238Z,-4.48
2016-12-20T03:37:17.192Z,-4.5
2016-12-20T03:38:17.168Z,-4.53
2016-12-20T03:39:17.148Z,-4.48
2016-12-20T03:40:17.124Z,-4.53
2016-12-20T03:41:17.104Z,-4.51
2016-12-20T03:42:17.083Z,-4.61
2016-12-20T03:43:17.069Z,-4.51
2016-12-20T03:44:17.052Z,-4.59
2016-12-20T03:45:17.024Z,-4.63
2016-12-20T03:46:17.014Z,-4.55
2016-12-20T03:47:16.991Z,-4.61
2016-12-20T03:48:16.969Z,-4.62
2016-12-20T03:49:16.950Z,-4.55
2016-12-20T03:50:16.932Z,-4.61
2016-12-20T03:51:16.910Z,-4.73
2016-12-20T03:52:16.891Z,-4.76
2016-12-20T03:53:16.871Z,-4.76
2016-12-20T03:54:16.849Z,-4.76
2016-12-20T03:55:16.831Z,-4.73
2016-12-20T03:56:16.809Z,-4.75
2016-12-20T03:57:16.789Z,-4.84
2016-12-20T03:58:16.771Z,-4.84
2016-12-20T03:59:16.752Z,-4.82
2016-12-20T04:00:16.786Z,-4.72
2016-12-20T04:01:16.711Z,-4.71
2016-12-20T04:02:16.690Z,-4.84
2016-12-20T04:03:16.671Z,-4.82
2016-12-20T04:04:16.656Z,-4.82
2016-12-20T04:05:16.633Z,-4.75
2016-12-20T04:06:16.616Z,-4.86
2016-12-20T04:07:16.593Z,-4.72
2016-12-20T04:08:16.604Z,-4.79
2016-12-20T04:09:16.554Z,-4.71
2016-12-20T04:10:16.532Z,-4.75
2016-12-20T04:11:16.513Z,-4.69
2016-12-20T04:12:16.808Z,-4.72
2016-12-20T04:13:16.477Z,-4.71
2016-12-20T04:14:16.455Z,-4.84
2016-12-20T04:15:16.437Z,-4.75
2016-12-20T04:16:16.414Z,-4.75
2016-12-20T04:17:16.402Z,-4.79
2016-12-20T04:18:16.374Z,-4.71
2016-12-20T04:19:16.354Z,-4.8
2016-12-20T04:20:16.335Z,-4.76
2016-12-20T04:21:16.315Z,-4.73
2016-12-20T04:22:16.298Z,-4.73
2016-12-20T04:23:16.278Z,-4.8
2016-12-20T04:24:16.257Z,-4.79
2016-12-20T04:25:16.237Z,-4.75
2016-12-20T04:26:16.219Z,-4.71
2016-12-20T04:27:16.197Z,-4.89
2016-12-20T04:28:16.178Z,-4.84
2016-12-20T04:29:16.158Z,-4.84
2016-12-20T04:30:16.136Z,-4.84
2016-12-20T04:31:16.127Z,-4.83
2016-12-20T04:32:16.099Z,-4.82
2016-12-20T04:33:16.079Z,-4.87
2016-12-20T04:34:16.061Z,-4.86
2016-12-20T04:35:16.039Z,-4.87
2016-12-20T04:36:16.023Z,-4.89
2016-12-20T04:37:15.998Z,-4.87
2016-12-20T04:38:16.009Z,-4.89
2016-12-20T04:39:15.964Z,-4.87
2016-12-20T04:40:15.938Z,-4.86
2016-12-20T04:41:15.921Z,-4.92
2016-12-20T04:42:15.902Z,-4.86
2016-12-20T04:43:15.880Z,-4.9
2016-12-20T04:44:15.861Z,-4.75
2016-12-20T04:45:15.842Z,-4.79
2016-12-20T04:46:15.821Z,-4.71
2016-12-20T04:47:15.797Z,-4.66
2016-12-20T04:48:15.781Z,-4.72
2016-12-20T04:49:15.759Z,-4.69
2016-12-20T04:50:15.739Z,-4.73
2016-12-20T04:51:15.719Z,-4.76
2016-12-20T04:52:15.701Z,-4.71
2016-12-20T04:53:15.687Z,-4.72
2016-12-20T04:54:15.658Z,-4.76
2016-12-20T04:55:15.643Z,-4.84
2016-12-20T04:56:15.623Z,-4.89
2016-12-20T04:57:15.601Z,-4.86
2016-12-20T04:58:15.896Z,-4.87
2016-12-20T04:59:15.566Z,-4.89
2016-12-20T05:00:15.544Z,-4.97
2016-12-20T05:01:15.838Z,-4.93
2016-12-20T05:02:15.501Z,-4.94
2016-12-20T05:03:15.482Z,-4.98
2016-12-20T05:04:15.466Z,-4.98
2016-12-20T05:05:15.439Z,-5.01
2016-12-20T05:06:15.459Z,-5.07
2016-12-20T05:07:15.400Z,-5.1
2016-12-20T05:08:15.386Z,-5.01
2016-12-20T05:09:15.364Z,-5.01
2016-12-20T05:10:15.353Z,-5.05
2016-12-20T05:11:15.325Z,-5.07
2016-12-20T05:12:15.311Z,-5.07
2016-12-20T05:13:15.286Z,-5.05
2016-12-20T05:14:15.265Z,-5.02
2016-12-20T05:15:15.257Z,-4.93
2016-12-20T05:16:15.225Z,-5.04
2016-12-20T05:17:15.202Z,-4.98
2016-12-20T05:18:15.186Z,-5.05
2016-12-20T05:19:15.168Z,-5.04
2016-12-20T05:20:15.145Z,-5
2016-12-20T05:21:15.128Z,-5.02
2016-12-20T05:22:15.109Z,-5
2016-12-20T05:23:15.087Z,-5.01
2016-12-20T05:24:15.067Z,-5.12
2016-12-20T05:25:15.043Z,-5.19
2016-12-20T05:26:15.028Z,-5.14
2016-12-20T05:27:15.007Z,-5.19
2016-12-20T05:28:14.990Z,-5.29
2016-12-20T05:29:14.965Z,-5.23
2016-12-20T05:30:14.946Z,-5.24
2016-12-20T05:31:14.929Z,-5.29
2016-12-20T05:32:14.909Z,-5.29
2016-12-20T05:33:14.885Z,-5.38
2016-12-20T05:34:14.864Z,-5.41
2016-12-20T05:35:14.847Z,-5.4
2016-12-20T05:36:14.829Z,-5.41
2016-12-20T05:37:14.804Z,-5.33
2016-12-20T05:38:14.785Z,-5.52
2016-12-20T05:39:14.769Z,-5.47
2016-12-20T05:40:14.758Z,-5.48
2016-12-20T05:41:14.725Z,-5.45
2016-12-20T05:42:14.708Z,-5.51
2016-12-20T05:43:14.686Z,-5.47
2016-12-20T05:44:14.669Z,-5.48
2016-12-20T05:45:14.645Z,-5.47
2016-12-20T05:46:14.626Z,-5.52
2016-12-20T05:47:14.605Z,-5.47
2016-12-20T05:48:14.586Z,-5.5
2016-12-20T05:49:14.572Z,-5.48
2016-12-20T05:50:14.549Z,-5.56
2016-12-20T05:51:14.528Z,-5.56
2016-12-20T05:52:14.506Z,-5.56
2016-12-20T05:53:14.486Z,-5.51
2016-12-20T05:54:14.501Z,-5.48
2016-12-20T05:55:14.445Z,-5.56
2016-12-20T05:56:14.428Z,-5.5
2016-12-20T05:57:14.405Z,-5.45
2016-12-20T05:58:14.389Z,-5.45
2016-12-20T05:59:14.371Z,-5.42
2016-12-20T06:00:14.369Z,-5.45
2016-12-20T06:01:14.639Z,-5.44
2016-12-20T06:02:14.305Z,-5.47
2016-12-20T06:03:14.317Z,-5.5
2016-12-20T06:04:14.270Z,-5.52
2016-12-20T06:05:14.248Z,-5.56
2016-12-20T06:06:14.228Z,-5.55
2016-12-20T06:07:14.206Z,-5.52
2016-12-20T06:08:14.185Z,-5.48
2016-12-20T06:09:14.161Z,-5.62
2016-12-20T06:10:14.145Z,-5.47
2016-12-20T06:11:14.126Z,-5.6
2016-12-20T06:12:14.106Z,-5.55
2016-12-20T06:13:14.083Z,-5.5
2016-12-20T06:14:14.064Z,-5.45
2016-12-20T06:15:14.047Z,-5.52
2016-12-20T06:16:14.024Z,-5.45
2016-12-20T06:17:14.012Z,-5.52
2016-12-20T06:18:13.994Z,-5.51
2016-12-20T06:19:13.962Z,-5.56
2016-12-20T06:20:13.949Z,-5.51
2016-12-20T06:21:13.923Z,-5.5
2016-12-20T06:22:13.903Z,-5.48
2016-12-20T06:23:13.886Z,-5.48
2016-12-20T06:24:13.863Z,-5.52
2016-12-20T06:25:13.846Z,-5.5
2016-12-20T06:26:13.826Z,-5.41
2016-12-20T06:27:13.804Z,-5.48
2016-12-20T06:28:13.785Z,-5.47
2016-12-20T06:29:13.768Z,-5.56
2016-12-20T06:30:13.744Z,-5.51
2016-12-20T06:31:13.724Z,-5.47
2016-12-20T06:32:13.702Z,-5.51
2016-12-20T06:33:13.680Z,-5.5
2016-12-20T06:34:13.659Z,-5.44
2016-12-20T06:35:13.643Z,-5.44
2016-12-20T06:36:13.625Z,-5.42
2016-12-20T06:37:13.602Z,-5.38
2016-12-20T06:38:13.581Z,-5.38
2016-12-20T06:39:13.561Z,-5.4
2016-12-20T06:40:13.541Z,-5.37
2016-12-20T06:41:13.522Z,-5.4
2016-12-20T06:42:13.504Z,-5.38
2016-12-20T06:43:13.480Z,-5.4
2016-12-20T06:44:13.783Z,-5.44
2016-12-20T06:45:13.444Z,-5.52
2016-12-20T06:46:13.424Z,-5.51
2016-12-20T06:47:13.403Z,-5.51
2016-12-20T06:48:13.382Z,-5.63
2016-12-20T06:49:13.359Z,-5.62
2016-12-20T06:50:13.348Z,-5.63
2016-12-20T06:51:13.318Z,-5.65
2016-12-20T06:52:13.304Z,-5.63
2016-12-20T06:53:13.312Z,-5.66
2016-12-20T06:54:13.258Z,-5.68
2016-12-20T06:55:13.236Z,-5.66
2016-12-20T06:56:13.219Z,-5.66
2016-12-20T06:57:13.198Z,-5.6
2016-12-20T06:58:13.178Z,-5.58
2016-12-20T06:59:13.156Z,-5.63
2016-12-20T07:00:13.140Z,-5.59
2016-12-20T07:01:13.119Z,-5.62
2016-12-20T07:02:13.113Z,-5.63
2016-12-20T07:03:13.077Z,-5.6
2016-12-20T07:04:13.057Z,-5.62
2016-12-20T07:05:13.041Z,-5.56
2016-12-20T07:06:13.019Z,-5.58
2016-12-20T07:07:12.995Z,-5.62
2016-12-20T07:08:12.979Z,-5.62
2016-12-20T07:09:12.956Z,-5.52
2016-12-20T07:10:12.935Z,-5.51
2016-12-20T07:11:12.918Z,-5.55
2016-12-20T07:12:12.898Z,-5.5
2016-12-20T07:13:12.871Z,-5.48
2016-12-20T07:14:12.862Z,-5.47
2016-12-20T07:15:12.834Z,-5.41
2016-12-20T07:16:12.816Z,-5.56
2016-12-20T07:17:12.797Z,-5.44
2016-12-20T07:18:12.776Z,-5.5
2016-12-20T07:19:12.766Z,-5.44
2016-12-20T07:20:12.734Z,-5.51
2016-12-20T07:21:12.714Z,-5.35
2016-12-20T07:22:12.694Z,-5.38
2016-12-20T07:23:12.676Z,-5.33
2016-12-20T07:24:12.653Z,-5.44
2016-12-20T07:25:12.631Z,-5.29
2016-12-20T07:26:12.616Z,-5.23
2016-12-20T07:27:12.593Z,-5.26
2016-12-20T07:28:12.572Z,-5.31
2016-12-20T07:29:12.552Z,-5.23
2016-12-20T07:30:12.536Z,-5.31
2016-12-20T07:31:12.511Z,-5.31
2016-12-20T07:32:12.491Z,-5.3
2016-12-20T07:33:12.470Z,-5.22
2016-12-20T07:34:12.449Z,-5.31
2016-12-20T07:35:12.432Z,-5.26
2016-12-20T07:36:12.413Z,-5.19
2016-12-20T07:37:12.389Z,-5.2
2016-12-20T07:38:12.378Z,-5.17
2016-12-20T07:39:12.352Z,-5.12
2016-12-20T07:40:12.327Z,-5.12
2016-12-20T07:41:12.317Z,-5.11
2016-12-20T07:42:12.287Z,-5.04
2016-12-20T07:43:12.270Z,-5
2016-12-20T07:44:12.247Z,-5.01
2016-12-20T07:45:12.235Z,-5.1
2016-12-20T07:46:12.211Z,-5.02
2016-12-20T07:47:12.188Z,-5.04
2016-12-20T07:48:12.167Z,-5.02
2016-12-20T07:49:12.149Z,-5.04
2016-12-20T07:50:12.130Z,-5.08
2016-12-20T07:51:12.108Z,-5.05
2016-12-20T07:52:12.089Z,-5.05
2016-12-20T07:53:12.065Z,-5.11
2016-12-20T07:54:12.048Z,-5.05
2016-12-20T07:55:12.030Z,-5
2016-12-20T07:56:12.007Z,-5.1
2016-12-20T07:57:11.991Z,-5
2016-12-20T07:58:11.968Z,-5.05
2016-12-20T07:59:11.949Z,-5.04
2016-12-20T08:00:11.929Z,-4.97
2016-12-20T08:01:11.918Z,-4.94
2016-12-20T08:02:11.918Z,-4.98
2016-12-20T08:03:11.867Z,-4.92
2016-12-20T08:04:11.846Z,-4.93
2016-12-20T08:05:11.828Z,-4.93
2016-12-20T08:06:11.810Z,-4.87
2016-12-20T08:07:11.786Z,-4.89
2016-12-20T08:08:11.766Z,-4.82
2016-12-20T08:09:11.750Z,-4.87
2016-12-20T08:10:11.733Z,-4.84
2016-12-20T08:11:11.707Z,-4.83
2016-12-20T08:12:11.688Z,-4.86
2016-12-20T08:13:11.668Z,-4.86
2016-12-20T08:14:11.650Z,-4.75
2016-12-20T08:15:11.628Z,-4.72
2016-12-20T08:16:11.608Z,-4.79
2016-12-20T08:17:11.588Z,-4.73
2016-12-20T08:18:11.571Z,-4.66
2016-12-20T08:19:11.552Z,-4.62
2016-12-20T08:20:11.530Z,-4.62
2016-12-20T08:21:11.513Z,-4.65
2016-12-20T08:22:11.491Z,-4.63
2016-12-20T08:23:11.470Z,-4.62
2016-12-20T08:24:11.450Z,-4.59
2016-12-20T08:25:11.430Z,-4.55
2016-12-20T08:26:11.415Z,-4.54
2016-12-20T08:27:11.391Z,-4.54
2016-12-20T08:28:11.375Z,-4.5
2016-12-20T08:29:11.354Z,-4.48
2016-12-20T08:30:11.332Z,-4.48
2016-12-20T08:31:11.312Z,-4.44
2016-12-20T08:32:11.291Z,-4.39
2016-12-20T08:33:11.275Z,-4.33
2016-12-20T08:34:11.256Z,-4.34
2016-12-20T08:35:11.233Z,-4.39
2016-12-20T08:36:11.212Z,-4.33
2016-12-20T08:37:11.195Z,-4.27
2016-12-20T08:38:11.175Z,-4.23
2016-12-20T08:39:11.157Z,-4.29
2016-12-20T08:40:11.135Z,-4.22
2016-12-20T08:41:11.115Z,-4.19
2016-12-20T08:42:11.101Z,-4.23
2016-12-20T08:43:11.077Z,-4.29
2016-12-20T08:44:11.057Z,-4.26
2016-12-20T08:45:11.041Z,-4.19
2016-12-20T08:46:11.020Z,-4.18
2016-12-20T08:47:10.997Z,-4.26
2016-12-20T08:48:10.980Z,-4.27
2016-12-20T08:49:10.958Z,-4.25
2016-12-20T08:50:10.942Z,-4.12
2016-12-20T08:51:10.922Z,-4.11
2016-12-20T08:52:10.898Z,-4.09
2016-12-20T08:53:10.882Z,-4.15
2016-12-20T08:54:10.865Z,-4.04
2016-12-20T08:55:10.848Z,-4.06
2016-12-20T08:56:10.824Z,-3.97
2016-12-20T08:57:10.809Z,-3.97
2016-12-20T08:58:10.783Z,-3.97
2016-12-20T08:59:10.766Z,-4.01
2016-12-20T09:00:10.757Z,-3.94
2016-12-20T09:01:10.730Z,-3.88
2016-12-20T09:02:10.707Z,-3.97
2016-12-20T09:03:10.694Z,-3.86
2016-12-20T09:04:10.681Z,-3.8
2016-12-20T09:05:10.662Z,-3.79
2016-12-20T09:06:10.630Z,-3.83
2016-12-20T09:07:10.614Z,-3.86
2016-12-20T09:08:10.592Z,-3.86
2016-12-20T09:09:10.581Z,-3.76
2016-12-20T09:10:10.553Z,-3.66
2016-12-20T09:11:10.536Z,-3.66
2016-12-20T09:12:10.516Z,-3.65
2016-12-20T09:13:10.495Z,-3.68
2016-12-20T09:14:10.477Z,-3.65
2016-12-20T09:15:10.460Z,-3.61
2016-12-20T09:16:10.442Z,-3.51
2016-12-20T09:17:10.420Z,-3.56
2016-12-20T09:18:10.398Z,-3.51
2016-12-20T09:19:10.382Z,-3.5
2016-12-20T09:20:10.361Z,-3.5
2016-12-20T09:21:10.350Z,-3.48
2016-12-20T09:22:10.327Z,-3.47
2016-12-20T09:23:10.305Z,-3.42
2016-12-20T09:24:10.290Z,-3.4
2016-12-20T09:25:10.264Z,-3.43
2016-12-20T09:26:10.252Z,-3.32
2016-12-20T09:27:10.231Z,-3.3
2016-12-20T09:28:10.225Z,-3.25
2016-12-20T09:29:10.196Z,-3.15
2016-12-20T09:30:10.171Z,-3.12
2016-12-20T09:31:10.154Z,-3.11
2016-12-20T09:32:10.132Z,-3.06
2016-12-20T09:33:10.119Z,-2.99
2016-12-20T09:34:10.105Z,-2.99
2016-12-20T09:35:10.081Z,-2.91
2016-12-20T09:36:10.054Z,-2.86
2016-12-20T09:37:10.036Z,-2.86
2016-12-20T09:38:10.021Z,-2.78
2016-12-20T09:39:10.009Z,-2.86
2016-12-20T09:40:09.980Z,-2.83
2016-12-20T09:41:09.995Z,-2.85
2016-12-20T09:42:09.948Z,-2.81
2016-12-20T09:43:09.927Z,-2.82
2016-12-20T09:44:09.906Z,-2.82
2016-12-20T09:45:09.887Z,-2.83
2016-12-20T09:46:09.871Z,-2.85
2016-12-20T09:47:09.850Z,-2.79
2016-12-20T09:48:09.832Z,-2.79
2016-12-20T09:49:09.817Z,-2.76
2016-12-20T09:50:09.792Z,-2.64
2016-12-20T09:51:09.775Z,-2.64
2016-12-20T09:52:09.754Z,-2.6
2016-12-20T09:53:09.739Z,-2.49
2016-12-20T09:54:09.718Z,-2.5
2016-12-20T09:55:09.700Z,-2.5
2016-12-20T09:56:09.686Z,-2.43
2016-12-20T09:57:09.663Z,-2.34
2016-12-20T09:58:09.642Z,-2.4
2016-12-20T09:59:09.625Z,-2.36
2016-12-20T10:00:09.606Z,-2.43
2016-12-20T10:01:09.603Z,-2.32
2016-12-20T10:02:09.568Z,-2.27
2016-12-20T10:03:09.551Z,-2.24
2016-12-20T10:04:09.533Z,-2.25
2016-12-20T10:05:09.516Z,-2.21
2016-12-20T10:06:09.492Z,-2.06
2016-12-20T10:07:09.479Z,-2.1
2016-12-20T10:08:09.462Z,-2.06
2016-12-20T10:09:09.440Z,-2.05
2016-12-20T10:10:09.423Z,-1.96
2016-12-20T10:11:09.404Z,-1.78
2016-12-20T10:12:09.387Z,-1.88
2016-12-20T10:13:09.363Z,-1.79
2016-12-20T10:14:09.348Z,-1.81
2016-12-20T10:15:09.328Z,-1.78
2016-12-20T10:16:09.311Z,-1.84
2016-12-20T10:17:09.295Z,-1.73
2016-12-20T10:18:09.276Z,-1.68
2016-12-20T10:19:09.258Z,-1.55
2016-12-20T10:20:09.237Z,-1.63
2016-12-20T10:21:09.218Z,-1.61
2016-12-20T10:22:09.202Z,-1.5
2016-12-20T10:23:09.184Z,-1.48
2016-12-20T10:24:09.479Z,-1.49
2016-12-20T10:25:09.149Z,-1.43
2016-12-20T10:26:09.128Z,-1.46
2016-12-20T10:27:09.108Z,-1.4
2016-12-20T10:28:09.089Z,-1.35
2016-12-20T10:29:09.073Z,-1.34
2016-12-20T10:30:09.055Z,-1.28
2016-12-20T10:31:09.037Z,-1.27
2016-12-20T10:32:09.017Z,-1.28
2016-12-20T10:33:09.001Z,-1.3
2016-12-20T10:34:08.988Z,-1.27
2016-12-20T10:35:08.963Z,-1.25
2016-12-20T10:36:08.950Z,-1.24
2016-12-20T10:37:08.931Z,-1.19
2016-12-20T10:38:08.918Z,-1.06
2016-12-20T10:39:08.896Z,-1.14
2016-12-20T10:40:08.874Z,-1.06
2016-12-20T10:41:08.859Z,-1.04
2016-12-20T10:42:08.842Z,-0.99
2016-12-20T10:43:08.823Z,-0.89
2016-12-20T10:44:08.805Z,-0.96
2016-12-20T10:45:09.102Z,-0.96
2016-12-20T10:46:08.771Z,-0.92
2016-12-20T10:47:08.747Z,-0.87
2016-12-20T10:48:08.731Z,-0.87
2016-12-20T10:49:08.712Z,-0.82
2016-12-20T10:50:08.699Z,-0.79
2016-12-20T10:51:08.680Z,-0.79
2016-12-20T10:52:08.980Z,-0.74
2016-12-20T10:53:08.644Z,-0.72
2016-12-20T10:54:08.628Z,-0.69
2016-12-20T10:55:08.608Z,-0.69
2016-12-20T10:56:08.588Z,-0.66
2016-12-20T10:57:08.574Z,-0.7
2016-12-20T10:58:08.556Z,-0.69
2016-12-20T10:59:08.536Z,-0.58
2016-12-20T11:00:08.517Z,-0.69
2016-12-20T11:01:08.501Z,-0.61
2016-12-20T11:02:08.488Z,-0.51
2016-12-20T11:03:08.465Z,-0.45
2016-12-20T11:04:08.448Z,-0.48
2016-12-20T11:05:08.468Z,-0.38
2016-12-20T11:06:08.416Z,-0.38
2016-12-20T11:07:08.400Z,-0.38
2016-12-20T11:08:08.376Z,-0.37
2016-12-20T11:09:08.360Z,-0.4
2016-12-20T11:10:08.345Z,-0.28
2016-12-20T11:11:08.326Z,-0.3
2016-12-20T11:12:08.308Z,-0.33
2016-12-20T11:13:08.292Z,-0.25
2016-12-20T11:14:08.271Z,-0.22
2016-12-20T11:15:08.262Z,-0.23
2016-12-20T11:16:08.240Z,-0.22
2016-12-20T11:17:08.223Z,-0.16
2016-12-20T11:18:08.225Z,-0.23
2016-12-20T11:19:08.185Z,-0.13
2016-12-20T11:20:08.169Z,-0.25
2016-12-20T11:21:08.157Z,-0.2
2016-12-20T11:22:08.135Z,-0.23
2016-12-20T11:23:08.116Z,-0.18
2016-12-20T11:24:08.103Z,-0.23
2016-12-20T11:25:08.082Z,-0.25
2016-12-20T11:26:08.067Z,-0.19
2016-12-20T11:27:08.047Z,-0.2
2016-12-20T11:28:08.032Z,-0.27
2016-12-20T11:29:08.015Z,-0.27
2016-12-20T11:30:07.995Z,-0.27
2016-12-20T11:31:07.979Z,-0.22
2016-12-20T11:32:07.960Z,-0.22
2016-12-20T11:33:07.948Z,-0.19
2016-12-20T11:34:08.243Z,-0.27
2016-12-20T11:35:07.910Z,-0.2
2016-12-20T11:36:07.891Z,-0.18
2016-12-20T11:37:07.876Z,-0.25
2016-12-20T11:38:07.861Z,-0.25
2016-12-20T11:39:07.844Z,-0.2
2016-12-20T11:40:07.822Z,-0.23
2016-12-20T11:41:07.811Z,-0.2
2016-12-20T11:42:07.793Z,-0.22
2016-12-20T11:43:07.774Z,-0.25
2016-12-20T11:44:07.757Z,-0.22
2016-12-20T11:45:07.743Z,-0.23
2016-12-20T11:46:07.720Z,-0.18
2016-12-20T11:47:07.703Z,-0.13
2016-12-20T11:48:07.685Z,-0.1
2016-12-20T11:49:07.672Z,-0.12
2016-12-20T11:50:07.655Z,-0.12
2016-12-20T11:51:07.632Z,0.01
2016-12-20T11:52:07.621Z,0.02
2016-12-20T11:53:07.602Z,0.02
2016-12-20T11:54:07.580Z,0.01
2016-12-20T11:55:07.566Z,0.05
2016-12-20T11:56:07.546Z,0.13
2016-12-20T11:57:07.530Z,0.05
2016-12-20T11:58:07.518Z,0.01
2016-12-20T11:59:07.525Z,0.1
2016-12-20T12:00:07.478Z,0.02
2016-12-20T12:01:07.781Z,0.16
2016-12-20T12:02:07.447Z,0.13
2016-12-20T12:03:07.435Z,0.14
2016-12-20T12:04:07.411Z,0.16
2016-12-20T12:05:07.395Z,0.13
2016-12-20T12:06:07.379Z,0.16
2016-12-20T12:07:07.363Z,0.14
2016-12-20T12:08:07.342Z,0.16
2016-12-20T12:09:07.323Z,0.1
2016-12-20T12:10:07.310Z,0.16
2016-12-20T12:11:07.292Z,0.14
2016-12-20T12:12:07.273Z,0.2
2016-12-20T12:13:07.258Z,0.17
2016-12-20T12:14:07.244Z,0.26
2016-12-20T12:15:07.225Z,0.28
2016-12-20T12:16:07.206Z,0.24
2016-12-20T12:17:07.191Z,0.35
2016-12-20T12:18:07.174Z,0.34
2016-12-20T12:19:07.154Z,0.42
2016-12-20T12:20:07.145Z,0.35
2016-12-20T12:21:07.121Z,0.35
2016-12-20T12:22:07.107Z,0.38
2016-12-20T12:23:07.089Z,0.38
2016-12-20T12:24:07.073Z,0.44
2016-12-20T12:25:07.057Z,0.37
2016-12-20T12:26:07.039Z,0.47
2016-12-20T12:27:07.021Z,0.39
2016-12-20T12:28:07.323Z,0.35
2016-12-20T12:29:06.987Z,0.35
2016-12-20T12:30:06.977Z,0.37
2016-12-20T12:31:06.956Z,0.37
2016-12-20T12:32:06.935Z,0.37
2016-12-20T12:33:07.236Z,0.35
2016-12-20T12:34:06.903Z,0.34
2016-12-20T12:35:06.891Z,0.38
2016-12-20T12:36:06.870Z,0.37
2016-12-20T12:37:06.855Z,0.38
2016-12-20T12:38:06.834Z,0.39
2016-12-20T12:39:06.817Z,0.42
2016-12-20T12:40:06.802Z,0.42
2016-12-20T12:41:06.789Z,0.35
2016-12-20T12:42:06.772Z,0.42
2016-12-20T12:43:06.755Z,0.37
2016-12-20T12:44:06.734Z,0.41
2016-12-20T12:45:06.721Z,0.39
2016-12-20T12:46:06.703Z,0.37
2016-12-20T12:47:06.682Z,0.32
2016-12-20T12:48:06.668Z,0.37
2016-12-20T12:49:06.648Z,0.34
2016-12-20T12:50:06.638Z,0.44
2016-12-20T12:51:06.617Z,0.44
2016-12-20T12:52:06.598Z,0.28
2016-12-20T12:53:06.584Z,0.2
2016-12-20T12:54:06.565Z,0.17
2016-12-20T12:55:06.547Z,0.17
2016-12-20T12:56:06.536Z,0.2
2016-12-20T12:57:06.514Z,0.26
2016-12-20T12:58:06.499Z,0.14